createdAt,value
2023-03-05T00:01:29.852Z,0.72
2023-03-05T00:03:57.258Z,0.72
2023-03-05T00:06:28.633Z,0.73
2023-03-05T00:08:57.689Z,0.74
2023-03-05T00:11:29.624Z,0.72
2023-03-05T00:13:58.403Z,0.70
2023-03-05T00:16:27.000Z,0.68
2023-03-05T00:18:55.783Z,0.65
2023-03-05T00:21:26.625Z,0.65
2023-03-05T00:23:55.035Z,0.65
2023-03-05T00:26:24.873Z,0.63
2023-03-05T00:28:53.068Z,0.61
2023-03-05T00:31:31.346Z,0.60
2023-03-05T00:34:01.345Z,0.58
2023-03-05T00:36:34.909Z,0.56
2023-03-05T00:39:01.961Z,0.54
2023-03-05T00:41:28.960Z,0.55
2023-03-05T00:43:56.046Z,0.54
2023-03-05T00:46:28.470Z,0.52
2023-03-05T00:48:56.424Z,0.52
2023-03-05T00:51:26.868Z,0.51
2023-03-05T00:53:54.058Z,0.51
2023-03-05T00:56:23.756Z,0.52
2023-03-05T00:58:51.397Z,0.53
2023-03-05T01:01:18.797Z,0.52
2023-03-05T01:03:46.174Z,0.54
2023-03-05T01:06:16.489Z,0.54
2023-03-05T01:08:44.261Z,0.52
2023-03-05T01:11:11.854Z,0.51
2023-03-05T01:13:39.227Z,0.49
2023-03-05T01:16:08.804Z,0.47
2023-03-05T01:18:37.863Z,0.45
2023-03-05T01:21:07.539Z,0.43
2023-03-05T01:23:37.625Z,0.43
2023-03-05T01:26:05.813Z,0.41
2023-03-05T01:28:35.149Z,0.39
2023-03-05T01:31:06.152Z,0.38
2023-03-05T01:33:33.192Z,0.37
2023-03-05T01:36:07.698Z,0.36
2023-03-05T01:38:34.909Z,0.36
2023-03-05T01:41:01.880Z,0.35
2023-03-05T01:43:30.527Z,0.34
2023-03-05T01:46:12.777Z,0.33
2023-03-05T01:48:43.890Z,0.34
2023-03-05T01:51:11.450Z,0.34
2023-03-05T01:53:41.432Z,0.35
2023-03-05T01:56:10.111Z,0.34
2023-03-05T01:58:39.265Z,0.34
2023-03-05T02:01:06.435Z,0.33
2023-03-05T02:03:34.241Z,0.33
2023-03-05T02:06:06.819Z,0.31
2023-03-05T02:08:33.811Z,0.29
2023-03-05T02:11:01.710Z,0.28
2023-03-05T02:13:32.729Z,0.26
2023-03-05T02:16:02.536Z,0.23
2023-03-05T02:18:29.595Z,0.21
2023-03-05T02:20:56.480Z,0.18
2023-03-05T02:23:32.187Z,0.16
2023-03-05T02:25:59.711Z,0.13
2023-03-05T02:28:44.930Z,0.09
2023-03-05T02:31:13.507Z,0.06
2023-03-05T02:33:40.961Z,0.03
2023-03-05T02:36:08.913Z,0.00
2023-03-05T02:38:35.988Z,-0.02
2023-03-05T02:41:03.262Z,-0.04
2023-03-05T02:43:30.691Z,-0.05
2023-03-05T02:45:58.341Z,-0.05
2023-03-05T02:48:25.521Z,-0.06
2023-03-05T02:50:53.633Z,-0.08
2023-03-05T02:53:22.084Z,-0.08
2023-03-05T02:55:50.085Z,-0.08
2023-03-05T02:58:18.066Z,-0.09
2023-03-05T03:00:46.162Z,-0.09
2023-03-05T03:03:13.760Z,-0.09
2023-03-05T03:05:40.851Z,-0.10
2023-03-05T03:08:08.418Z,-0.11
2023-03-05T03:10:35.724Z,-0.12
2023-03-05T03:13:02.813Z,-0.12
2023-03-05T03:15:29.812Z,-0.13
2023-03-05T03:17:56.895Z,-0.12
2023-03-05T03:20:24.860Z,-0.13
2023-03-05T03:22:51.844Z,-0.15
2023-03-05T03:25:22.564Z,-0.17
2023-03-05T03:27:52.209Z,-0.18
2023-03-05T03:30:19.387Z,-0.18
2023-03-05T03:32:46.485Z,-0.18
2023-03-05T03:35:13.654Z,-0.19
2023-03-05T03:37:40.875Z,-0.21
2023-03-05T03:40:08.830Z,-0.21
2023-03-05T03:42:35.839Z,-0.22
2023-03-05T03:45:03.693Z,-0.22
2023-03-05T03:47:30.789Z,-0.21
2023-03-05T03:49:58.276Z,-0.22
2023-03-05T03:52:25.974Z,-0.23
2023-03-05T03:54:55.086Z,-0.25
2023-03-05T03:57:22.371Z,-0.25
2023-03-05T03:59:50.513Z,-0.26
2023-03-05T04:02:17.968Z,-0.27
2023-03-05T04:04:45.118Z,-0.29
2023-03-05T04:07:12.369Z,-0.29
2023-03-05T04:09:39.411Z,-0.30
2023-03-05T04:12:06.734Z,-0.31
2023-03-05T04:14:33.905Z,-0.32
2023-03-05T04:17:00.893Z,-0.33
2023-03-05T04:19:30.045Z,-0.34
2023-03-05T04:21:58.874Z,-0.35
2023-03-05T04:24:25.966Z,-0.36
2023-03-05T04:26:53.253Z,-0.36
2023-03-05T04:29:20.492Z,-0.37
2023-03-05T04:31:47.525Z,-0.37
2023-03-05T04:34:14.621Z,-0.38
2023-03-05T04:36:41.726Z,-0.40
2023-03-05T04:39:08.678Z,-0.42
2023-03-05T04:41:35.686Z,-0.43
2023-03-05T04:44:02.757Z,-0.44
2023-03-05T04:46:30.034Z,-0.44
2023-03-05T04:48:57.551Z,-0.45
2023-03-05T04:51:24.897Z,-0.47
2023-03-05T04:53:51.798Z,-0.46
2023-03-05T04:56:18.812Z,-0.44
2023-03-05T04:58:45.827Z,-0.43
2023-03-05T05:01:13.181Z,-0.43
2023-03-05T05:03:40.302Z,-0.42
2023-03-05T05:06:07.733Z,-0.42
2023-03-05T05:08:36.465Z,-0.44
2023-03-05T05:11:06.247Z,-0.46
2023-03-05T05:13:34.588Z,-0.49
2023-03-05T05:16:02.045Z,-0.50
2023-03-05T05:18:29.041Z,-0.51
2023-03-05T05:20:56.026Z,-0.53
2023-03-05T05:23:23.080Z,-0.54
2023-03-05T05:26:01.433Z,-0.56
2023-03-05T05:28:28.578Z,-0.59
2023-03-05T05:30:56.662Z,-0.61
2023-03-05T05:33:24.889Z,-0.61
2023-03-05T05:35:52.613Z,-0.63
2023-03-05T05:38:19.886Z,-0.64
2023-03-05T05:40:46.842Z,-0.65
2023-03-05T05:43:13.950Z,-0.65
2023-03-05T05:45:40.997Z,-0.64
2023-03-05T05:48:07.968Z,-0.63
2023-03-05T05:50:34.945Z,-0.63
2023-03-05T05:53:02.057Z,-0.62
2023-03-05T05:55:29.163Z,-0.61
2023-03-05T05:57:56.306Z,-0.61
2023-03-05T06:00:23.340Z,-0.59
2023-03-05T06:02:50.366Z,-0.59
2023-03-05T06:05:17.487Z,-0.59
2023-03-05T06:07:44.691Z,-0.59
2023-03-05T06:10:11.827Z,-0.59
2023-03-05T06:12:38.885Z,-0.59
2023-03-05T06:15:06.394Z,-0.58
2023-03-05T06:17:33.419Z,-0.57
2023-03-05T06:20:00.507Z,-0.56
2023-03-05T06:22:27.720Z,-0.54
2023-03-05T06:24:54.846Z,-0.51
2023-03-05T06:27:21.965Z,-0.50
2023-03-05T06:29:52.569Z,-0.47
2023-03-05T06:32:20.065Z,-0.45
2023-03-05T06:34:47.192Z,-0.42
2023-03-05T06:37:14.255Z,-0.40
2023-03-05T06:39:41.211Z,-0.37
2023-03-05T06:42:09.588Z,-0.34
2023-03-05T06:44:43.220Z,-0.31
2023-03-05T06:47:10.285Z,-0.29
2023-03-05T06:49:38.489Z,-0.27
2023-03-05T06:52:06.845Z,-0.26
2023-03-05T06:54:33.849Z,-0.25
2023-03-05T06:57:00.905Z,-0.22
2023-03-05T06:59:27.829Z,-0.18
2023-03-05T07:01:54.843Z,-0.15
2023-03-05T07:04:23.570Z,-0.12
2023-03-05T07:06:50.825Z,-0.09
2023-03-05T07:09:18.269Z,-0.06
2023-03-05T07:11:45.345Z,-0.03
2023-03-05T07:14:12.322Z,0.00
2023-03-05T07:16:39.440Z,0.05
2023-03-05T07:19:07.505Z,0.12
2023-03-05T07:21:36.906Z,0.19
2023-03-05T07:24:06.655Z,0.25
2023-03-05T07:26:34.370Z,0.32
2023-03-05T07:29:02.205Z,0.37
2023-03-05T07:31:32.678Z,0.43
2023-03-05T07:34:01.732Z,0.50
2023-03-05T07:36:34.372Z,0.55
2023-03-05T07:39:04.213Z,0.59
2023-03-05T07:41:32.612Z,0.65
2023-03-05T07:43:59.762Z,0.71
2023-03-05T07:46:30.187Z,0.79
2023-03-05T07:48:57.251Z,0.87
2023-03-05T07:51:26.210Z,0.93
2023-03-05T07:53:55.531Z,0.98
2023-03-05T07:56:24.045Z,1.03
2023-03-05T07:58:51.911Z,1.06
2023-03-05T08:01:18.984Z,1.09
2023-03-05T08:03:45.918Z,1.13
2023-03-05T08:06:13.031Z,1.20
2023-03-05T08:08:40.054Z,1.24
2023-03-05T08:11:10.213Z,1.29
2023-03-05T08:13:37.839Z,1.32
2023-03-05T08:16:06.571Z,1.35
2023-03-05T08:18:34.115Z,1.39
2023-03-05T08:21:01.537Z,1.45
2023-03-05T08:23:29.334Z,1.49
2023-03-05T08:25:57.302Z,1.53
2023-03-05T08:28:26.874Z,1.58
2023-03-05T08:30:55.670Z,1.64
2023-03-05T08:33:22.835Z,1.70
2023-03-05T08:35:50.172Z,1.73
2023-03-05T08:38:18.920Z,1.76
2023-03-05T08:40:48.027Z,1.80
2023-03-05T08:43:33.109Z,1.88
2023-03-05T08:46:08.273Z,1.98
2023-03-05T08:48:36.408Z,2.10
2023-03-05T08:51:32.631Z,2.16
2023-03-05T08:54:01.200Z,2.22
2023-03-05T08:56:31.720Z,2.31
2023-03-05T08:58:59.952Z,2.41
2023-03-05T09:01:29.438Z,2.50
2023-03-05T09:03:59.819Z,2.59
2023-03-05T09:06:36.168Z,2.68
2023-03-05T09:09:20.338Z,2.74
2023-03-05T09:11:55.239Z,2.77
2023-03-05T09:14:27.860Z,2.90
2023-03-05T09:16:59.320Z,3.02
2023-03-05T09:19:27.150Z,3.14
2023-03-05T09:21:56.883Z,3.22
2023-03-05T09:24:24.292Z,3.28
2023-03-05T09:26:51.876Z,3.38
2023-03-05T09:29:19.739Z,3.42
2023-03-05T09:31:51.373Z,3.44
2023-03-05T09:34:18.913Z,3.44
2023-03-05T09:36:50.735Z,3.40
2023-03-05T09:39:18.060Z,3.45
2023-03-05T09:42:13.212Z,3.55
2023-03-05T09:45:02.737Z,3.52
2023-03-05T09:48:31.341Z,3.48
2023-03-05T09:51:24.499Z,3.48
2023-03-05T09:54:15.955Z,3.54
2023-03-05T09:57:14.055Z,3.58
2023-03-05T10:00:03.514Z,3.63
2023-03-05T10:02:51.221Z,3.66
2023-03-05T10:06:03.600Z,3.66
2023-03-05T10:09:22.654Z,3.67
2023-03-05T10:11:58.737Z,3.74
2023-03-05T10:14:35.541Z,3.83
2023-03-05T10:17:32.299Z,3.91
2023-03-05T10:20:24.386Z,3.95
2023-03-05T10:23:39.308Z,4.02
2023-03-05T10:26:45.018Z,4.11
2023-03-05T10:29:50.801Z,4.17
2023-03-05T10:32:39.180Z,4.14
2023-03-05T10:35:19.188Z,4.04
2023-03-05T10:38:06.175Z,4.08
2023-03-05T10:40:58.379Z,4.16
2023-03-05T10:44:09.401Z,4.22
2023-03-05T10:46:39.619Z,4.24
2023-03-05T10:49:37.155Z,4.26
2023-03-05T10:52:22.231Z,4.34
2023-03-05T10:54:51.118Z,4.39
2023-03-05T10:57:32.311Z,4.43
2023-03-05T11:00:06.020Z,4.46
2023-03-05T11:02:34.132Z,4.50
2023-03-05T11:05:01.815Z,4.57
2023-03-05T11:07:33.866Z,4.62
2023-03-05T11:10:16.045Z,4.57
2023-03-05T11:12:44.564Z,4.47
2023-03-05T11:15:12.045Z,4.43
2023-03-05T11:17:43.988Z,4.44
2023-03-05T11:20:26.814Z,4.43
2023-03-05T11:23:25.582Z,4.44
2023-03-05T11:26:02.882Z,4.44
2023-03-05T11:28:59.500Z,4.51
2023-03-05T11:31:29.880Z,4.53
2023-03-05T11:34:23.048Z,4.54
2023-03-05T11:36:52.767Z,4.46
2023-03-05T11:39:22.775Z,4.40
2023-03-05T11:41:52.163Z,4.29
2023-03-05T11:44:53.504Z,4.14
2023-03-05T11:47:46.421Z,3.99
2023-03-05T11:50:49.064Z,3.86
2023-03-05T11:53:29.230Z,3.82
2023-03-05T11:56:18.049Z,3.83
2023-03-05T11:59:10.461Z,3.78
2023-03-05T12:01:46.040Z,3.72
2023-03-05T12:04:18.099Z,3.70
2023-03-05T12:07:15.008Z,3.69
2023-03-05T12:09:52.280Z,3.65
2023-03-05T12:12:53.232Z,3.64
2023-03-05T12:16:14.297Z,3.69
2023-03-05T12:18:57.846Z,3.63
2023-03-05T12:21:38.954Z,3.48
2023-03-05T12:24:27.893Z,3.31
2023-03-05T12:27:16.291Z,3.24
2023-03-05T12:29:49.883Z,3.10
2023-03-05T12:32:24.808Z,2.93
2023-03-05T12:35:05.787Z,2.69
2023-03-05T12:37:32.650Z,2.52
2023-03-05T12:40:03.634Z,2.36
2023-03-05T12:42:30.940Z,2.26
2023-03-05T12:45:14.254Z,2.04
2023-03-05T12:47:42.798Z,1.84
2023-03-05T12:50:47.062Z,1.62
2023-03-05T12:53:19.061Z,1.44
2023-03-05T12:56:25.934Z,1.36
2023-03-05T12:59:00.058Z,1.32
2023-03-05T13:01:27.505Z,1.31
2023-03-05T13:04:00.477Z,1.33
2023-03-05T13:06:36.660Z,1.35
2023-03-05T13:09:15.777Z,1.36
2023-03-05T13:11:50.771Z,1.33
2023-03-05T13:15:03.830Z,1.31
2023-03-05T13:18:00.152Z,1.31
2023-03-05T13:21:20.141Z,1.32
2023-03-05T13:23:57.597Z,1.33
2023-03-05T13:26:35.680Z,1.34
2023-03-05T13:29:13.129Z,1.37
2023-03-05T13:31:58.825Z,1.42
2023-03-05T13:34:44.600Z,1.47
2023-03-05T13:37:20.734Z,1.50
2023-03-05T13:39:59.609Z,1.53
2023-03-05T13:42:47.614Z,1.57
2023-03-05T13:45:35.136Z,1.64
2023-03-05T13:48:21.784Z,1.69
2023-03-05T13:51:08.440Z,1.66
2023-03-05T13:53:36.560Z,1.65
2023-03-05T13:56:15.085Z,1.62
2023-03-05T13:59:16.766Z,1.54
2023-03-05T14:01:53.014Z,1.46
2023-03-05T14:04:29.942Z,1.43
2023-03-05T14:07:33.426Z,1.39
2023-03-05T14:10:08.756Z,1.35
2023-03-05T14:12:54.422Z,1.32
2023-03-05T14:18:54.822Z,1.31
2023-03-05T14:21:44.686Z,1.32
2023-03-05T14:24:31.055Z,1.34
2023-03-05T14:27:13.193Z,1.42
2023-03-05T14:30:07.605Z,1.48
2023-03-05T14:32:40.780Z,1.52
2023-03-05T14:35:39.916Z,1.56
2023-03-05T14:38:22.583Z,1.56
2023-03-05T14:41:47.956Z,1.54
2023-03-05T14:44:26.346Z,1.50
2023-03-05T14:46:54.200Z,1.49
2023-03-05T14:49:48.583Z,1.48
2023-03-05T14:52:34.230Z,1.50
2023-03-05T14:55:09.106Z,1.55
2023-03-05T14:57:45.531Z,1.64
2023-03-05T15:00:16.205Z,1.73
2023-03-05T15:02:43.457Z,1.80
2023-03-05T15:05:10.675Z,1.83
2023-03-05T15:07:38.212Z,1.90
2023-03-05T15:10:12.476Z,1.95
2023-03-05T15:12:41.784Z,1.90
2023-03-05T15:18:07.105Z,1.85
2023-03-05T15:20:38.440Z,1.83
2023-03-05T15:23:05.827Z,1.82
2023-03-05T15:25:32.910Z,1.81
2023-03-05T15:28:01.227Z,1.78
2023-03-05T15:30:30.004Z,1.73
2023-03-05T15:33:00.225Z,1.70
2023-03-05T15:35:27.846Z,1.67
2023-03-05T15:37:57.969Z,1.61
2023-03-05T15:40:27.350Z,1.56
2023-03-05T15:42:56.566Z,1.52
2023-03-05T15:45:24.195Z,1.49
2023-03-05T15:47:52.698Z,1.46
2023-03-05T15:50:21.274Z,1.45
2023-03-05T15:52:49.363Z,1.45
2023-03-05T15:55:24.045Z,1.43
2023-03-05T15:57:53.326Z,1.41
2023-03-05T16:00:25.703Z,1.40
2023-03-05T16:02:53.289Z,1.38
2023-03-05T16:05:20.553Z,1.35
2023-03-05T16:07:51.737Z,1.33
2023-03-05T16:10:24.952Z,1.31
2023-03-05T16:13:03.403Z,1.27
2023-03-05T16:15:33.059Z,1.24
2023-03-05T16:18:05.700Z,1.22
2023-03-05T16:20:35.881Z,1.20
2023-03-05T16:23:04.604Z,1.16
2023-03-05T16:25:34.113Z,1.13
2023-03-05T16:28:01.284Z,1.11
2023-03-05T16:30:29.064Z,1.08
2023-03-05T16:32:56.089Z,1.06
2023-03-05T16:35:23.277Z,1.06
2023-03-05T16:37:50.624Z,1.05
2023-03-05T16:40:18.245Z,1.05
2023-03-05T16:42:45.307Z,1.04
2023-03-05T16:45:12.500Z,1.04
2023-03-05T16:47:41.343Z,1.03
2023-03-05T16:50:11.380Z,1.03
2023-03-05T16:52:38.384Z,1.04
2023-03-05T16:55:06.788Z,1.04
2023-03-05T16:57:34.237Z,1.04
2023-03-05T17:00:03.642Z,1.03
2023-03-05T17:02:31.053Z,1.02
2023-03-05T17:05:01.071Z,1.00
2023-03-05T17:07:30.647Z,1.00
2023-03-05T17:09:57.625Z,0.99
2023-03-05T17:12:24.629Z,0.98
2023-03-05T17:14:52.934Z,0.97
2023-03-05T17:17:20.207Z,0.97
2023-03-05T17:19:48.886Z,0.97
2023-03-05T17:22:18.695Z,0.97
2023-03-05T17:24:47.548Z,0.96
2023-03-05T17:27:18.487Z,0.95
2023-03-05T17:29:46.408Z,0.96
2023-03-05T17:32:14.856Z,0.99
2023-03-05T17:34:42.768Z,1.01
2023-03-05T17:37:10.547Z,1.02
2023-03-05T17:39:39.580Z,1.04
2023-03-05T17:42:20.298Z,1.04
2023-03-05T17:44:50.867Z,1.04
2023-03-05T17:47:18.004Z,1.03
2023-03-05T17:49:47.896Z,1.02
2023-03-05T17:52:15.266Z,1.00
2023-03-05T17:54:45.452Z,0.99
2023-03-05T17:57:15.386Z,0.98
2023-03-05T17:59:44.744Z,0.96
2023-03-05T18:02:12.515Z,0.94
2023-03-05T18:04:41.000Z,0.92
2023-03-05T18:07:08.129Z,0.90
2023-03-05T18:09:35.765Z,0.87
2023-03-05T18:12:02.907Z,0.85
2023-03-05T18:14:31.665Z,0.83
2023-03-05T18:16:59.639Z,0.80
2023-03-05T18:19:26.678Z,0.77
2023-03-05T18:21:53.896Z,0.73
2023-03-05T18:24:21.444Z,0.70
2023-03-05T18:26:48.959Z,0.67
2023-03-05T18:29:18.790Z,0.67
2023-03-05T18:31:46.217Z,0.66
2023-03-05T18:34:13.159Z,0.63
2023-03-05T18:36:40.962Z,0.59
2023-03-05T18:39:11.515Z,0.55
2023-03-05T18:41:41.106Z,0.50
2023-03-05T18:44:11.265Z,0.43
2023-03-05T18:46:46.257Z,0.37
2023-03-05T18:49:15.441Z,0.30
2023-03-05T18:51:49.298Z,0.24
2023-03-05T18:54:18.583Z,0.18
2023-03-05T18:56:50.062Z,0.12
2023-03-05T18:59:22.560Z,0.08
2023-03-05T19:01:53.729Z,0.06
2023-03-05T19:04:25.756Z,0.04
2023-03-05T19:06:53.133Z,0.03
2023-03-05T19:09:41.154Z,0.03
2023-03-05T19:12:09.721Z,0.02
2023-03-05T19:14:37.387Z,0.01
2023-03-05T19:17:08.706Z,0.02
2023-03-05T19:19:37.638Z,-0.00
2023-03-05T19:22:06.288Z,-0.01
2023-03-05T19:24:33.795Z,-0.02
2023-03-05T19:27:09.645Z,-0.02
2023-03-05T19:29:41.916Z,-0.03
2023-03-05T19:32:13.638Z,-0.04
2023-03-05T19:34:41.572Z,-0.06
2023-03-05T19:37:10.997Z,-0.07
2023-03-05T19:39:38.203Z,-0.08
2023-03-05T19:42:10.152Z,-0.08
2023-03-05T19:44:38.582Z,-0.07
2023-03-05T19:47:07.576Z,-0.05
2023-03-05T19:49:35.512Z,-0.05
2023-03-05T19:52:05.658Z,-0.04
2023-03-05T19:54:34.000Z,-0.04
2023-03-05T19:57:02.697Z,-0.04
2023-03-05T19:59:30.654Z,-0.04
2023-03-05T20:01:58.220Z,-0.04
2023-03-05T20:04:31.018Z,-0.03
2023-03-05T20:07:06.748Z,-0.02
2023-03-05T20:09:33.809Z,-0.03
2023-03-05T20:12:04.935Z,-0.02
2023-03-05T20:14:32.814Z,-0.03
2023-03-05T20:17:12.125Z,-0.03
2023-03-05T20:19:39.081Z,-0.02
2023-03-05T20:22:06.650Z,-0.03
2023-03-05T20:24:34.386Z,-0.03
2023-03-05T20:27:01.707Z,-0.02
2023-03-05T20:29:29.512Z,-0.02
2023-03-05T20:31:56.858Z,-0.03
2023-03-05T20:34:29.208Z,-0.02
2023-03-05T20:36:58.375Z,-0.03
2023-03-05T20:39:28.745Z,-0.03
2023-03-05T20:42:01.051Z,-0.03
2023-03-05T20:44:39.067Z,-0.02
2023-03-05T20:47:25.573Z,-0.03
2023-03-05T20:49:55.893Z,-0.03
2023-03-05T20:52:26.629Z,-0.02
2023-03-05T20:55:05.698Z,-0.02
2023-03-05T20:57:36.991Z,-0.01
2023-03-05T21:00:08.195Z,-0.01
2023-03-05T21:02:35.313Z,-0.01
2023-03-05T21:05:02.327Z,-0.01
2023-03-05T21:07:30.364Z,-0.01
2023-03-05T21:09:57.349Z,-0.02
2023-03-05T21:12:24.445Z,-0.02
2023-03-05T21:14:51.501Z,-0.01
2023-03-05T21:17:19.127Z,-0.02
2023-03-05T21:19:52.098Z,-0.03
2023-03-05T21:22:19.857Z,-0.04
2023-03-05T21:25:00.602Z,-0.05
2023-03-05T21:27:28.500Z,-0.07
2023-03-05T21:29:58.550Z,-0.11
2023-03-05T21:32:28.265Z,-0.15
2023-03-05T21:35:02.577Z,-0.19
2023-03-05T21:37:33.796Z,-0.21
2023-03-05T21:40:01.068Z,-0.22
2023-03-05T21:42:28.063Z,-0.23
2023-03-05T21:44:55.161Z,-0.24
2023-03-05T21:47:24.536Z,-0.27
2023-03-05T21:49:51.486Z,-0.26
2023-03-05T21:52:21.523Z,-0.26
2023-03-05T21:54:53.898Z,-0.26
2023-03-05T21:57:21.910Z,-0.25
2023-03-05T21:59:52.063Z,-0.24
2023-03-05T22:02:20.682Z,-0.23
2023-03-05T22:04:59.227Z,-0.21
2023-03-05T22:07:27.477Z,-0.21
2023-03-05T22:09:57.396Z,-0.20
2023-03-05T22:13:04.511Z,-0.22
2023-03-05T22:15:33.185Z,-0.24
2023-03-05T22:18:14.266Z,-0.25
2023-03-05T22:20:53.342Z,-0.27
2023-03-05T22:23:27.847Z,-0.30
2023-03-05T22:25:59.022Z,-0.31
2023-03-05T22:28:28.464Z,-0.32
2023-03-05T22:30:59.975Z,-0.32
2023-03-05T22:33:28.834Z,-0.34
2023-03-05T22:35:56.353Z,-0.34
2023-03-05T22:38:24.804Z,-0.35
2023-03-05T22:40:58.214Z,-0.36
2023-03-05T22:43:25.501Z,-0.39
2023-03-05T22:45:55.589Z,-0.41
2023-03-05T22:48:27.818Z,-0.43
2023-03-05T22:50:55.775Z,-0.45
2023-03-05T22:53:27.165Z,-0.45
2023-03-05T22:55:55.629Z,-0.45
2023-03-05T22:58:25.620Z,-0.41
2023-03-05T23:00:53.579Z,-0.41
2023-03-05T23:03:24.056Z,-0.41
2023-03-05T23:05:52.498Z,-0.43
2023-03-05T23:08:20.680Z,-0.43
2023-03-05T23:10:48.202Z,-0.40
2023-03-05T23:13:15.300Z,-0.39
2023-03-05T23:15:42.291Z,-0.38
2023-03-05T23:18:09.362Z,-0.38
2023-03-05T23:20:36.929Z,-0.36
2023-03-05T23:23:03.956Z,-0.37
2023-03-05T23:25:33.263Z,-0.37
2023-03-05T23:28:51.292Z,-0.39
2023-03-05T23:31:18.708Z,-0.40
2023-03-05T23:33:46.100Z,-0.41
2023-03-05T23:36:13.070Z,-0.41
2023-03-05T23:38:40.058Z,-0.41
2023-03-05T23:41:09.040Z,-0.39
2023-03-05T23:43:40.680Z,-0.41
2023-03-05T23:46:11.450Z,-0.40
2023-03-05T23:48:38.413Z,-0.41
2023-03-05T23:51:10.060Z,-0.43
2023-03-05T23:53:37.148Z,-0.45
2023-03-05T23:56:09.966Z,-0.44
2023-03-05T23:58:37.885Z,-0.43
